createdAt,value
2022-12-16T00:01:50.991Z,26.23
2022-12-16T00:04:39.293Z,24.60
2022-12-16T00:07:26.648Z,26.60
2022-12-16T00:10:14.067Z,30.57
2022-12-16T00:13:04.758Z,24.50
2022-12-16T00:15:56.343Z,24.43
2022-12-16T00:18:43.765Z,26.40
2022-12-16T00:21:31.156Z,25.60
2022-12-16T00:24:18.523Z,28.93
2022-12-16T00:27:05.936Z,26.50
2022-12-16T00:29:53.288Z,27.73
2022-12-16T00:32:41.190Z,29.00
2022-12-16T00:35:30.371Z,21.43
2022-12-16T00:38:17.723Z,27.30
2022-12-16T00:41:05.121Z,24.17
2022-12-16T00:43:52.553Z,26.27
2022-12-16T00:46:40.105Z,29.20
2022-12-16T00:49:27.484Z,23.20
2022-12-16T00:52:14.810Z,24.87
2022-12-16T00:55:02.652Z,27.60
2022-12-16T00:57:50.046Z,28.07
2022-12-16T01:00:39.263Z,27.23
2022-12-16T01:03:26.704Z,27.67
2022-12-16T01:06:15.598Z,29.47
2022-12-16T01:09:02.942Z,25.53
2022-12-16T01:11:50.337Z,26.30
2022-12-16T01:14:37.867Z,29.17
2022-12-16T01:17:25.993Z,28.33
2022-12-16T01:20:14.159Z,25.03
2022-12-16T01:23:01.520Z,25.90
2022-12-16T01:25:50.775Z,29.27
2022-12-16T01:28:38.118Z,25.63
2022-12-16T01:31:25.603Z,26.13
2022-12-16T01:34:13.017Z,24.73
2022-12-16T01:37:00.343Z,26.13
2022-12-16T01:39:49.077Z,27.67
2022-12-16T01:42:36.441Z,28.90
2022-12-16T01:45:31.391Z,26.70
2022-12-16T01:48:25.629Z,31.33
2022-12-16T01:51:52.419Z,27.90
2022-12-16T01:54:49.023Z,27.73
2022-12-16T01:57:43.458Z,29.40
2022-12-16T02:00:30.895Z,28.63
2022-12-16T02:03:18.241Z,30.43
2022-12-16T02:06:06.950Z,34.00
2022-12-16T02:08:56.300Z,31.80
2022-12-16T02:12:22.104Z,30.63
2022-12-16T02:15:21.653Z,31.67
2022-12-16T02:18:08.955Z,28.50
2022-12-16T02:20:56.280Z,32.53
2022-12-16T02:24:10.495Z,31.57
2022-12-16T02:27:18.893Z,36.30
2022-12-16T02:30:08.982Z,29.00
2022-12-16T02:33:14.667Z,36.20
2022-12-16T02:36:04.907Z,30.63
2022-12-16T02:39:10.624Z,26.93
2022-12-16T02:42:07.111Z,28.60
2022-12-16T02:45:00.517Z,27.70
2022-12-16T02:47:48.677Z,30.17
2022-12-16T02:50:47.645Z,30.50
2022-12-16T02:53:36.879Z,29.23
2022-12-16T02:56:24.959Z,34.97
2022-12-16T02:59:12.303Z,29.20
2022-12-16T03:02:08.760Z,30.33
2022-12-16T03:05:01.993Z,30.00
2022-12-16T03:07:50.705Z,31.13
2022-12-16T03:10:45.045Z,28.83
2022-12-16T03:13:35.680Z,31.40
2022-12-16T03:16:25.234Z,30.27
2022-12-16T03:19:13.461Z,29.40
2022-12-16T03:22:03.635Z,24.80
2022-12-16T03:24:51.021Z,26.17
2022-12-16T03:27:41.283Z,29.23
2022-12-16T03:30:33.491Z,27.47
2022-12-16T03:33:33.266Z,27.47
2022-12-16T03:36:22.740Z,27.00
2022-12-16T03:39:10.938Z,27.63
2022-12-16T03:41:59.035Z,25.23
2022-12-16T03:44:47.302Z,27.63
2022-12-16T03:47:34.695Z,27.73
2022-12-16T03:50:24.318Z,26.50
2022-12-16T03:53:11.690Z,30.37
2022-12-16T03:55:59.027Z,27.03
2022-12-16T03:58:46.935Z,24.97
2022-12-16T04:01:34.338Z,25.33
2022-12-16T04:04:21.840Z,28.63
2022-12-16T04:07:21.192Z,27.87
2022-12-16T04:10:08.908Z,28.70
2022-12-16T04:13:14.797Z,26.20
2022-12-16T04:16:21.209Z,29.03
2022-12-16T04:19:32.487Z,28.03
2022-12-16T04:22:58.460Z,25.83
2022-12-16T04:25:46.108Z,24.37
2022-12-16T04:28:33.528Z,31.67
2022-12-16T04:31:20.906Z,29.23
2022-12-16T04:34:26.514Z,26.83
2022-12-16T04:37:32.466Z,25.87
2022-12-16T04:40:42.850Z,27.10
2022-12-16T04:43:48.537Z,27.27
2022-12-16T04:46:54.650Z,27.27
2022-12-16T04:50:00.710Z,30.65
2022-12-16T04:53:09.404Z,26.97
2022-12-16T04:56:15.623Z,27.33
2022-12-16T04:59:26.055Z,24.23
2022-12-16T05:02:32.131Z,27.90
2022-12-16T05:05:38.134Z,25.33
2022-12-16T05:08:43.694Z,22.17
2022-12-16T05:11:49.557Z,24.57
2022-12-16T05:14:55.753Z,22.33
2022-12-16T05:18:01.834Z,24.30
2022-12-16T05:21:07.880Z,23.07
2022-12-16T05:24:13.907Z,23.10
2022-12-16T05:27:20.180Z,23.97
2022-12-16T05:30:31.977Z,23.57
2022-12-16T05:33:39.586Z,27.30
2022-12-16T05:36:45.717Z,25.50
2022-12-16T05:39:51.835Z,25.30
2022-12-16T05:42:57.990Z,23.07
2022-12-16T05:46:04.225Z,25.43
2022-12-16T05:49:10.275Z,40.95
2022-12-16T05:52:16.180Z,61.22
2022-12-16T05:55:22.518Z,45.20
2022-12-16T05:58:28.557Z,48.70
2022-12-16T06:01:34.797Z,39.67
2022-12-16T06:04:41.305Z,35.57
2022-12-16T06:07:47.654Z,33.83
2022-12-16T06:10:53.931Z,26.83
2022-12-16T06:14:00.314Z,25.00
2022-12-16T06:17:06.793Z,27.77
2022-12-16T06:20:12.942Z,23.83
2022-12-16T06:23:23.983Z,25.00
2022-12-16T06:26:31.680Z,23.57
2022-12-16T06:29:37.718Z,22.03
2022-12-16T06:32:44.067Z,25.13
2022-12-16T06:35:50.411Z,25.43
2022-12-16T06:39:10.239Z,25.53
2022-12-16T06:42:16.056Z,21.13
2022-12-16T06:45:22.124Z,22.90
2022-12-16T06:48:28.074Z,23.23
2022-12-16T06:51:34.219Z,21.63
2022-12-16T06:54:40.142Z,25.40
2022-12-16T06:57:46.200Z,26.03
2022-12-16T07:00:52.480Z,23.53
2022-12-16T07:03:58.243Z,25.73
2022-12-16T07:07:04.467Z,28.70
2022-12-16T07:10:10.311Z,24.30
2022-12-16T07:13:16.878Z,32.43
2022-12-16T07:16:22.757Z,24.63
2022-12-16T07:19:28.655Z,24.17
2022-12-16T07:22:34.797Z,29.77
2022-12-16T07:25:40.847Z,27.03
2022-12-16T07:28:47.196Z,27.07
2022-12-16T07:31:53.585Z,20.87
2022-12-16T07:34:59.998Z,27.70
2022-12-16T07:38:06.228Z,25.87
2022-12-16T07:41:12.465Z,28.10
2022-12-16T07:44:18.814Z,28.20
2022-12-16T07:47:25.094Z,34.13
2022-12-16T07:50:31.279Z,28.03
2022-12-16T07:53:37.770Z,29.50
2022-12-16T07:56:44.418Z,27.80
2022-12-16T07:59:50.311Z,28.73
2022-12-16T08:02:56.427Z,25.47
2022-12-16T08:06:02.496Z,26.70
2022-12-16T08:09:08.618Z,27.97
2022-12-16T08:12:14.559Z,30.77
2022-12-16T08:15:20.863Z,27.67
2022-12-16T08:18:26.961Z,26.77
2022-12-16T08:21:33.296Z,30.50
2022-12-16T08:24:39.254Z,29.53
2022-12-16T08:27:45.499Z,30.30
2022-12-16T08:30:51.426Z,29.63
2022-12-16T08:33:58.463Z,26.43
2022-12-16T08:37:04.738Z,33.10
2022-12-16T08:40:34.316Z,28.10
2022-12-16T08:43:37.323Z,30.23
2022-12-16T08:46:43.508Z,31.40
2022-12-16T08:49:49.987Z,33.83
2022-12-16T08:52:57.820Z,29.83
2022-12-16T08:56:03.990Z,30.47
2022-12-16T08:59:09.888Z,29.40
2022-12-16T09:02:16.364Z,31.73
2022-12-16T09:05:22.843Z,34.90
2022-12-16T09:08:39.668Z,36.73
2022-12-16T09:11:45.812Z,30.63
2022-12-16T09:14:51.777Z,35.73
2022-12-16T09:17:57.779Z,31.57
2022-12-16T09:21:03.630Z,33.50
2022-12-16T09:24:09.582Z,34.70
2022-12-16T09:27:15.591Z,31.27
2022-12-16T09:30:21.335Z,31.20
2022-12-16T09:33:27.268Z,32.70
2022-12-16T09:36:33.219Z,33.63
2022-12-16T09:39:39.095Z,37.13
2022-12-16T09:42:53.241Z,34.13
2022-12-16T09:46:26.761Z,33.80
2022-12-16T09:49:38.207Z,36.07
2022-12-16T09:52:58.104Z,34.17
2022-12-16T09:56:05.394Z,35.47
2022-12-16T09:59:18.638Z,35.17
2022-12-16T10:02:30.044Z,33.87
2022-12-16T10:05:41.004Z,36.00
2022-12-16T10:08:58.908Z,35.27
2022-12-16T10:12:04.760Z,37.27
2022-12-16T10:15:22.075Z,33.87
2022-12-16T10:18:36.731Z,34.17
2022-12-16T10:21:48.873Z,35.73
2022-12-16T10:25:03.629Z,41.23
2022-12-16T10:28:09.779Z,34.60
2022-12-16T10:31:16.152Z,39.13
2022-12-16T10:34:22.704Z,39.03
2022-12-16T10:37:33.149Z,34.73
2022-12-16T10:40:42.284Z,40.47
2022-12-16T10:43:53.331Z,38.17
2022-12-16T10:47:01.590Z,43.87
2022-12-16T10:50:08.138Z,32.93
2022-12-16T10:53:30.404Z,40.47
2022-12-16T10:56:42.302Z,37.77
2022-12-16T10:59:56.016Z,39.60
2022-12-16T11:03:02.216Z,41.13
2022-12-16T11:06:08.846Z,39.47
2022-12-16T11:09:14.981Z,42.73
2022-12-16T11:12:53.260Z,38.43
2022-12-16T11:16:04.591Z,39.50
2022-12-16T11:19:11.134Z,42.30
2022-12-16T11:22:25.227Z,41.07
2022-12-16T11:25:33.544Z,47.87
2022-12-16T11:28:39.715Z,44.37
2022-12-16T11:31:46.016Z,46.57
2022-12-16T11:34:52.571Z,47.30
2022-12-16T11:38:00.822Z,41.40
2022-12-16T11:41:08.621Z,44.93
2022-12-16T11:44:15.092Z,46.37
2022-12-16T11:47:21.259Z,46.47
2022-12-16T11:50:33.339Z,48.33
2022-12-16T11:53:42.173Z,44.60
2022-12-16T11:56:53.887Z,44.97
2022-12-16T12:00:01.361Z,50.67
2022-12-16T12:03:07.612Z,44.77
2022-12-16T12:06:32.841Z,47.00
2022-12-16T12:09:42.651Z,43.77
2022-12-16T12:12:53.171Z,46.87
2022-12-16T12:16:05.362Z,43.00
2022-12-16T12:19:24.907Z,50.17
2022-12-16T12:22:41.402Z,44.27
2022-12-16T12:25:51.770Z,40.37
2022-12-16T12:29:04.169Z,46.17
2022-12-16T12:32:26.651Z,42.73
2022-12-16T12:35:47.936Z,50.60
2022-12-16T12:39:06.288Z,43.97
2022-12-16T12:42:12.691Z,48.07
2022-12-16T12:45:36.459Z,48.03
2022-12-16T12:48:45.646Z,48.70
2022-12-16T12:52:00.723Z,45.53
2022-12-16T12:55:19.562Z,47.77
2022-12-16T12:58:25.860Z,47.80
2022-12-16T13:01:33.062Z,55.10
2022-12-16T13:04:40.602Z,58.20
2022-12-16T13:07:46.823Z,51.30
2022-12-16T13:10:55.160Z,58.37
2022-12-16T13:14:01.597Z,52.73
2022-12-16T13:17:10.487Z,49.63
2022-12-16T13:20:16.983Z,51.57
2022-12-16T13:23:42.551Z,51.93
2022-12-16T13:26:49.847Z,49.70
2022-12-16T13:29:57.036Z,52.63
2022-12-16T13:33:13.236Z,51.83
2022-12-16T13:36:20.155Z,49.70
2022-12-16T13:40:01.793Z,51.73
2022-12-16T13:43:09.681Z,51.83
2022-12-16T13:46:24.561Z,50.30
2022-12-16T13:49:49.036Z,51.50
2022-12-16T13:53:13.399Z,45.90
2022-12-16T13:56:40.877Z,42.77
2022-12-16T13:59:47.987Z,44.57
2022-12-16T14:02:59.797Z,48.03
2022-12-16T14:06:06.086Z,50.47
2022-12-16T14:09:12.259Z,42.97
2022-12-16T14:12:24.435Z,52.20
2022-12-16T14:15:35.958Z,52.03
2022-12-16T14:18:44.188Z,47.57
2022-12-16T14:22:02.429Z,47.60
2022-12-16T14:25:08.445Z,55.27
2022-12-16T14:28:14.442Z,49.67
2022-12-16T14:31:33.091Z,49.23
2022-12-16T14:34:40.430Z,49.80
2022-12-16T14:37:53.426Z,48.63
2022-12-16T14:40:59.734Z,51.03
2022-12-16T14:44:05.728Z,52.47
2022-12-16T14:47:12.053Z,51.73
2022-12-16T14:50:18.308Z,51.67
2022-12-16T14:53:35.113Z,55.93
2022-12-16T14:56:42.302Z,51.63
2022-12-16T14:59:48.347Z,52.27
2022-12-16T15:02:57.969Z,51.17
2022-12-16T15:06:04.866Z,47.30
2022-12-16T15:09:22.620Z,55.50
2022-12-16T15:12:29.943Z,55.90
2022-12-16T15:15:39.565Z,53.87
2022-12-16T15:18:47.840Z,52.23
2022-12-16T15:21:54.766Z,49.90
2022-12-16T15:25:03.163Z,53.90
2022-12-16T15:28:13.537Z,59.53
2022-12-16T15:31:19.878Z,51.40
2022-12-16T15:34:45.986Z,50.93
2022-12-16T15:38:04.249Z,47.23
2022-12-16T15:41:10.767Z,49.40
2022-12-16T15:44:16.815Z,50.40
2022-12-16T15:47:23.736Z,48.30
2022-12-16T15:50:33.805Z,47.57
2022-12-16T15:53:50.928Z,43.40
2022-12-16T15:57:04.141Z,45.33
2022-12-16T16:00:18.412Z,47.80
2022-12-16T16:03:24.542Z,52.47
2022-12-16T16:06:38.281Z,58.43
2022-12-16T16:09:46.003Z,57.83
2022-12-16T16:12:52.225Z,51.27
2022-12-16T16:15:58.453Z,54.27
2022-12-16T16:19:04.414Z,49.27
2022-12-16T16:22:10.311Z,47.87
2022-12-16T16:25:16.637Z,49.23
2022-12-16T16:28:22.483Z,53.73
2022-12-16T16:31:29.493Z,50.77
2022-12-16T16:34:35.586Z,47.00
2022-12-16T16:37:41.861Z,58.87
2022-12-16T16:40:52.773Z,49.20
2022-12-16T16:43:59.168Z,56.67
2022-12-16T16:47:05.661Z,45.10
2022-12-16T16:50:16.079Z,49.13
2022-12-16T16:53:24.999Z,54.80
2022-12-16T16:56:31.626Z,49.87
2022-12-16T16:59:37.744Z,52.97
2022-12-16T17:02:44.536Z,49.57
2022-12-16T17:05:50.677Z,58.93
2022-12-16T17:08:56.917Z,54.10
2022-12-16T17:12:03.135Z,53.53
2022-12-16T17:15:09.104Z,58.47
2022-12-16T17:18:36.563Z,60.10
2022-12-16T17:21:43.545Z,59.70
2022-12-16T17:24:53.893Z,68.33
2022-12-16T17:28:02.591Z,68.20
2022-12-16T17:31:08.623Z,63.87
2022-12-16T17:34:14.441Z,63.10
2022-12-16T17:37:20.341Z,61.37
2022-12-16T17:40:26.360Z,57.13
2022-12-16T17:43:32.695Z,58.27
2022-12-16T17:46:38.922Z,57.13
2022-12-16T17:49:44.968Z,54.77
2022-12-16T17:52:51.107Z,55.77
2022-12-16T17:55:57.387Z,60.90
2022-12-16T17:59:05.830Z,62.40
2022-12-16T18:02:12.389Z,74.15
2022-12-16T18:05:18.464Z,62.93
2022-12-16T18:08:24.666Z,62.23
2022-12-16T18:11:34.592Z,64.37
2022-12-16T18:14:43.418Z,60.23
2022-12-16T18:17:49.708Z,59.13
2022-12-16T18:20:55.876Z,59.83
2022-12-16T18:24:02.185Z,57.57
2022-12-16T18:27:08.345Z,60.23
2022-12-16T18:30:14.381Z,61.53
2022-12-16T18:33:20.853Z,59.03
2022-12-16T18:36:27.140Z,59.73
2022-12-16T18:39:33.177Z,60.67
2022-12-16T18:42:39.158Z,63.53
2022-12-16T18:45:45.470Z,59.57
2022-12-16T18:48:51.587Z,62.13
2022-12-16T18:51:57.936Z,60.57
2022-12-16T18:55:03.899Z,55.33
2022-12-16T18:58:21.048Z,56.10
2022-12-16T19:01:36.394Z,53.03
2022-12-16T19:04:42.671Z,51.67
2022-12-16T19:07:48.747Z,56.60
2022-12-16T19:10:54.773Z,56.73
2022-12-16T19:14:01.018Z,54.07
2022-12-16T19:17:07.306Z,50.97
2022-12-16T19:20:13.518Z,56.00
2022-12-16T19:23:19.617Z,58.83
2022-12-16T19:26:36.470Z,57.00
2022-12-16T19:29:42.651Z,51.30
2022-12-16T19:32:48.805Z,57.20
2022-12-16T19:35:54.848Z,52.50
2022-12-16T19:39:03.001Z,52.07
2022-12-16T19:42:09.086Z,58.07
2022-12-16T19:45:14.971Z,67.53
2022-12-16T19:48:21.611Z,60.77
2022-12-16T19:51:27.819Z,61.77
2022-12-16T19:54:33.771Z,57.30
2022-12-16T19:57:39.927Z,58.17
2022-12-16T20:00:46.027Z,62.60
2022-12-16T20:03:56.501Z,62.00
2022-12-16T20:07:03.146Z,63.47
2022-12-16T20:10:09.434Z,64.03
2022-12-16T20:13:22.102Z,76.53
2022-12-16T20:16:31.359Z,84.07
2022-12-16T20:19:37.409Z,78.20
2022-12-16T20:22:43.680Z,76.33
2022-12-16T20:25:50.024Z,72.13
2022-12-16T20:28:56.028Z,69.33
2022-12-16T20:32:02.493Z,69.70
2022-12-16T20:35:08.482Z,58.53
2022-12-16T20:38:15.559Z,58.07
2022-12-16T20:41:22.972Z,59.80
2022-12-16T20:44:28.941Z,58.73
2022-12-16T20:47:45.983Z,54.20
2022-12-16T20:50:52.141Z,59.13
2022-12-16T20:54:01.877Z,60.00
2022-12-16T20:57:12.493Z,59.43
2022-12-16T21:00:19.211Z,56.57
2022-12-16T21:03:28.156Z,63.47
2022-12-16T21:06:34.105Z,52.93
2022-12-16T21:09:40.364Z,49.47
2022-12-16T21:12:46.307Z,60.73
2022-12-16T21:15:52.099Z,56.30
2022-12-16T21:18:57.866Z,59.07
2022-12-16T21:22:03.988Z,51.10
2022-12-16T21:25:10.164Z,54.20
2022-12-16T21:28:16.757Z,58.47
2022-12-16T21:31:23.163Z,55.53
2022-12-16T21:34:29.554Z,57.63
2022-12-16T21:37:35.642Z,56.60
2022-12-16T21:40:41.850Z,56.33
2022-12-16T21:43:50.809Z,57.37
2022-12-16T21:46:58.079Z,58.73
2022-12-16T21:50:11.642Z,55.87
2022-12-16T21:53:18.006Z,57.23
2022-12-16T21:56:24.534Z,55.87
2022-12-16T21:59:30.750Z,62.07
2022-12-16T22:02:37.058Z,56.83
2022-12-16T22:05:43.531Z,58.17
2022-12-16T22:08:49.411Z,66.30
2022-12-16T22:11:56.347Z,62.77
2022-12-16T22:15:02.540Z,56.43
2022-12-16T22:18:08.622Z,54.53
2022-12-16T22:21:16.467Z,54.00
2022-12-16T22:24:22.506Z,50.90
2022-12-16T22:27:28.690Z,54.07
2022-12-16T22:30:34.904Z,51.83
2022-12-16T22:33:40.865Z,46.77
2022-12-16T22:36:46.889Z,47.07
2022-12-16T22:39:53.205Z,56.57
2022-12-16T22:43:13.308Z,60.80
2022-12-16T22:46:20.080Z,55.17
2022-12-16T22:49:26.186Z,71.77
2022-12-16T22:52:31.881Z,86.97
2022-12-16T22:55:37.960Z,72.90
2022-12-16T22:58:43.874Z,69.97
2022-12-16T23:01:49.689Z,76.50
2022-12-16T23:04:55.870Z,63.33
2022-12-16T23:08:03.362Z,60.80
2022-12-16T23:11:13.114Z,54.77
2022-12-16T23:14:19.096Z,56.93
2022-12-16T23:17:25.317Z,56.13
2022-12-16T23:20:31.319Z,59.40
2022-12-16T23:23:37.704Z,57.20
2022-12-16T23:26:44.188Z,58.03
2022-12-16T23:29:50.331Z,63.67
2022-12-16T23:32:56.407Z,67.07
2022-12-16T23:36:02.588Z,80.13
2022-12-16T23:39:08.600Z,62.00
2022-12-16T23:42:15.872Z,58.17
2022-12-16T23:45:21.851Z,53.30
2022-12-16T23:48:29.012Z,54.13
2022-12-16T23:51:35.054Z,52.20
2022-12-16T23:54:41.226Z,53.80
2022-12-16T23:57:47.242Z,53.40
